Active alerts

Gallatin County, MT
  Details for Gallatin County, MT Winter Storm Warning
Gallatin County, MT
  Details for Gallatin County, MT Hydrologic Outlook

Thunder radar more information blitzortung!


Rain radar more information rain snow radar



Nearby METAR Reports

   
KNUQ - Mountain View, CA
Updated: Jun 26 2022 7:35 pm
Clear  
Clear  
   Wind: NNW 9.2 mph<br />Gust to 9.2 mph
Wind: NNW 9.2 mph
Gust to 9.2 mph
Temperature: 64.4°F
Dew Point: 57.2°F
Humidity: 78%
Barometer: 30 inHg
Clouds: Clear
Visibility: 10 mi
Cloud details: Clear ft
KNUQ 270235Z AUTO 33008G14KT 10SM CLR 18/14 A3000 RMK AO2
KSFO - San Francisco, CA
Updated: Jun 26 2022 7:56 pm
Few Clouds  
Few Clouds  
   Wind: WNW 21.9 mph
Wind: WNW 21.9 mph
Temperature: 60.8°F
Dew Point: 53.6°F
Humidity: 77%
Barometer: 30.01 inHg
Clouds: Few Clouds
Visibility: 10 mi
Cloud details: Few Clouds 400 ft
KSFO 270256Z 29019KT 10SM FEW004 16/12 A3001 RMK AO2 PK WND 30027/0224 SLP161 T01560117 53005
KSJC - San Jose, CA
Updated: Jun 26 2022 7:53 pm
Few Clouds  
Few Clouds  
   Wind: NNW 13.8 mph
Wind: NNW 13.8 mph
Temperature: 69.8°F
Dew Point: 57.2°F
Humidity: 64%
Barometer: 30 inHg
Clouds: Few Clouds
Visibility: 10 mi
Cloud details: Few Clouds 18000 ft
KSJC 270253Z 33012KT 10SM FEW180 21/14 A3000 RMK AO2 SLP157 T02060139 53007 $
KOAK - Oakland, CA
Updated: Jun 26 2022 7:53 pm
Partly Cloudy  
Partly Cloudy  
   Wind: WNW 18.4 mph
Wind: WNW 18.4 mph
Temperature: 60.8°F
Dew Point: 53.6°F
Humidity: 77%
Barometer: 30.02 inHg
Clouds: Partly Cloudy
Visibility: 10 mi
Cloud details: Few Clouds 600 ft,
Few Clouds 15000 ft,
Partly Cloudy 25000 ft
KOAK 270253Z 29016KT 10SM FEW006 FEW150 SCT250 16/12 A3002 RMK AO2 SLP166 T01610122 53006
KMRY - Monterey, CA
Updated: Jun 26 2022 7:54 pm
Overcast  
Overcast  
   Wind: NNW 5.8 mph
Wind: NNW 5.8 mph
Temperature: 60.8°F
Dew Point: 53.6°F
Humidity: 77%
Barometer: 30.05 inHg
Clouds: Overcast
Visibility: 10 mi
Cloud details: Overcast 800 ft
KMRY 270254Z 34005KT 10SM OVC008 16/12 A3005 RMK AO2 SLP186 T01560122 52003
KWYS - West Yellowstone, MT
Updated: Jun 26 2022 7:55 pm
Clear  
Clear  
   Wind: Calm
Wind: Calm
Temperature: 60.8°F
Dew Point: 37.4°F
Humidity: 42%
Barometer: 30.35 inHg
Clouds: Clear
Visibility: 10 mi
Cloud details: Clear ft
KWYS 270255Z AUTO 00000KT 10SM CLR 16/03 A3035 RMK AO2
KDCA - Washington, DC
Updated: Jun 26 2022 7:52 pm
Mostly Cloudy  
Mostly Cloudy  
   Wind: South 8.1 mph
Wind: South 8.1 mph
Temperature: 78.8°F
Dew Point: 69.8°F
Humidity: 74%
Barometer: 30.03 inHg
Clouds: Mostly Cloudy
Visibility: 10 mi
Cloud details: Few Clouds 6000 ft,
Few Clouds 9000 ft,
Mostly Cloudy 25000 ft
KDCA 270252Z 18007KT 10SM FEW060 FEW090 BKN250 26/21 A3003 RMK AO2 SLP168 T02560206 50004
KIAD - Washington Dulles, VA
Updated: Jun 26 2022 7:52 pm
Mostly Cloudy  
Mostly Cloudy  
   Wind: South 9.2 mph
Wind: South 9.2 mph
Temperature: 75.2°F
Dew Point: 69.8°F
Humidity: 83%
Barometer: 30.02 inHg
Clouds: Mostly Cloudy
Visibility: 10 mi
Cloud details: Partly Cloudy 11000 ft,
Mostly Cloudy 21000 ft
KIAD 270252Z 18008KT 10SM SCT110 BKN210 24/21 A3002 RMK AO2 SLP161 60000 T02390206 50001
KMIA - Miami Beach, FL
Updated: Jun 26 2022 7:53 pm
Mostly Cloudy  
Mostly Cloudy  
   Wind: SE 4.6 mph
Wind: SE 4.6 mph
Temperature: 82.4°F
Heat Index: 87.8°F
Dew Point: 71.6°F
Humidity: 70%
Barometer: 30.04 inHg
Clouds: Mostly Cloudy
Visibility: 10 mi
Cloud details: Partly Cloudy 4000 ft,
Mostly Cloudy 7000 ft,
Mostly Cloudy 12000 ft,
Mostly Cloudy 25000 ft
KMIA 270253Z 13004KT 10SM SCT040 BKN070 BKN120 BKN250 28/22 A3004 RMK AO2 SLP171 T02780222 53012 $

Script developed by  Saratoga-weather.org Adapted for the template by  Weerstation Leuven

You find our weather info also at:

Weather Underground

Citizen Weather Observer Program (CWOP)

Equipment we use:

Weather-station
Ambient WS-1400-IP

Weather-program
Meteobridge

Weather-server
TP-LINK TL-MR3020

Ambient WS-1400-IP

Meteobridge

TP-LINK TL-MR3020